Previous Day
Next Day
Current Day
SHEF ID: FVSO2 FAIRVIEW
STATION TYPE: Mesonet
PRECIP AIR-TEMP WIND-DIRWIND-SPEED REL-HUMID SOLAR-RAD
in F deg mph % W/m2
Raw-Meson Raw-Meson Raw-Meson Raw-Meson Raw-Meson Raw-Meson
(US/Central)
05/27 00:00 0.00 69.71 185.25 7.49 74.50 0.00
05/27 01:00 0.00 68.31 104.00 5.82 80.50 0.00
05/27 02:00 0.00 67.10 151.75 3.86 86.75 0.00
05/27 03:00 0.00 74.80 163.00 10.90 79.75 0.00
05/27 04:00 0.00 77.18 207.50 13.31 72.75 0.00
05/27 05:00 0.00 79.16 195.50 28.41 46.00 0.00
05/27 06:00 0.00 77.18 193.25 17.50 43.50 0.00
05/27 07:00 0.01 73.67 189.25 15.16 72.50 7.25
05/27 08:00 ---- 73.09 280.75 6.49 84.50 29.25
05/27 09:00 ---- ---- ---- ---- ---- ----
05/27 10:00 0.00 74.34 142.75 0.72 82.25 145.25
05/27 11:00 0.00 78.35 161.25 7.77 77.75 456.75
05/27 12:00 0.00 81.86 201.25 11.58 72.00 508.00
05/27 13:00 0.00 81.81 219.50 10.40 71.75 321.50
05/27 14:00 0.68 80.28 207.00 10.57 76.50 233.50
05/27 15:00 0.28 75.06 155.50 11.29 85.75 81.50
05/27 16:00 0.00 70.47 48.25 11.63 94.75 65.50
05/27 17:00 0.00 68.31 139.25 6.88 93.75 39.50
05/27 18:00 0.00 70.61 317.25 4.25 91.00 348.00
05/27 19:00 0.00 75.38 106.00 7.21 82.25 267.50
05/27 20:00 0.00 74.21 29.50 13.42 81.00 107.75
05/27 21:00 0.00 71.69 32.50 9.56 83.25 29.25
05/27 22:00 0.00 69.13 355.50 6.60 89.00 0.00
05/27 23:00 ---- 66.61 16.00 3.75 92.00 0.00